Pagina principală
METAR-TAF:

METAR-TAF

Aeroporturi :

Buenos Aires, Argentina

Latitudine: 34-34S, longitudine: 058-25W, elevație: 6 m

Observații meteo curente

Raportul a fost făcut în urmă cu 29 de minute, la 15:00 UTC
Vânt 3 kt de la Sud-vest, variabil între Sud/Sud-est și Nord-vest
Temperatură 18°C
Umiditate 42%
Presiune 1018 hPa
Vizibilitate de 10 km sau mai mult
nu există nori sub 1.500 m și nici cumulonimbus

METAR: SABE 251500Z 22003KT 160V320 CAVOK 18/05 Q1018 NOSIG

Ora: 12:29 (15:29 UTC)

Prognoză

Raportul a fost făcut în urmă cu 4 ore și 29 de minute, la 11:00 UTC
Prognoză valabilă de la 25 ora 12 UTC la 26 ora 12 UTC
Vânt 5 kt din direcții variabile
Vizibilitate de 10 km sau mai mult
nu există nori sub 1.500 m și nici cumulonimbus

TAF: SABE 251100Z 2512/2612 VRB05KT CAVOK TX19/2518Z TN09/2610Z

Observații și prognoze meteo pentru peste 4.000 de aeroporturi (rapoarte METAR și TAF).

Stațiile disponibile sunt reprezentate pe hartă prin puncte galbene și roșii.

Țineți indicatorul mouse-ului pe punctul dorit pentru a vedea denumirea stației.

Apoi, faceți clic pentru a vedea observațiile și prognozele meteorologice.

Pentru a schimba harta: Pentru mărire, faceți clic pe butoanele verzi cu cruce neagră; pentru micșorare, pe butonul verde cu o liniuță; pentru hărți învecinate, pe săgețile verzi.


METAR-TAF: